Ana Sayfa
METAR-TAF:

METAR-TAF

Havaalanları :

Kunming, Çin

Enlem: 25-01N, Boylam: 102-41E, yükseklik: 1892 m

Güncel hava durumu gözlemi

Rapor saat 09:00 UTC de 32 dakika önce yapıldı.
Rüzgar batıdan 23 kt
Sıcaklık 21°C
Nem 21%
Basınç 1016 hPa
Görüş mesafesi 10 km veya daha fazla
2600 ft yükseklikte parçalı bulutlu

METAR: ZPPP 240900Z 26012MPS 9999 SCT026 21/M02 Q1016 NOSIG

Saat: 17:32 (09:32 UTC)

Tahmin

Rapor saat 01:16 UTC de 8 saat ve 16 dakika önce yapıldı.
Ayın 24'si saat 06 UTC'den ayın 25'si saat 06 UTC'ye kadar geçerli Tahmin
Rüzgar güneybatıdan 19 kt ve 29 kt'a kadar ani rüzgarlar
Görüş mesafesi 10 km veya daha fazla
3000 ft yükseklikte parçalı bulutlu
Dönüşüyor
ayın 24'si saat 12 UTC'den ayın 24'si saat 13 UTC'ye kadar
Rüzgar güneybatıdan 8 kt

TAF: ZPPP 240116Z 2406/2506 22010G15MPS 9999 SCT030 TX20/2408Z TN07/2423Z BECMG 2412/2413 22004MPS

4.000'den fazla havaalanı için hava durumu gözlemleri ve tahminleri (METAR ve TAF raporları).

Kullanılabilir istasyonlar harita üzerinde sarı ve kırmızı noktalarla gösterilir.

İstasyonun adını görmek için fareyi noktanın üzerinde gezdirin.

Sonrasında hava gözlem ve tahminlerini görmek için tıklayın.

Haritayı değiştirmek için: yaklaştırmak için siyah artı işaretli yeşil düğmeye ve uzaklaştırmak için de eksi işaretli düğmeye hızla tıklayın; bitişik haritalar için yeşil okları kullanın.


METAR-TAF: